Time;durP1;ratioP1;P1;durP2;ratioP2;P2;SDS_P1;SDS_P2;PMS_P1;PMS_P2;Temp;Humidity;BMP_temperature;BMP_pressure;BME280_temperature;BME280_humidity;BME280_pressure;Samples;Min_cycle;Max_cycle;Signal;HPM_P1;HPM_P2
2021/12/13 00:00:07;;;;;;;;;;;10.10;99.90;;;;;;6245520;22;19915;-82
2021/12/13 00:02:36;;;;;;;;;;;10.10;99.90;;;;;;6243054;22;19923;-79
2021/12/13 00:05:11;;;;;;;;;;;10.10;99.90;;;;;;6245849;22;19947;-80
2021/12/13 00:07:38;;;;;;;;;;;10.10;99.90;;;;;;6245323;22;20255;-80
2021/12/13 00:10:11;;;;;;;;;;;10.10;99.90;;;;;;6245192;22;20038;-80
2021/12/13 00:12:43;;;;;;;;;;;10.10;99.90;;;;;;6245404;22;19935;-80
2021/12/13 00:15:12;;;;;;;;;;;10.10;99.90;;;;;;6245145;22;20418;-80
2021/12/13 00:17:38;;;;;;;;;;;10.10;99.90;;;;;;6243077;22;19930;-80
2021/12/13 00:20:13;;;;;;;;;;;10.10;99.90;;;;;;6245741;22;19923;-80
2021/12/13 00:22:52;;;;;;;;;;;10.10;99.90;;;;;;6244701;22;19977;-80
2021/12/13 00:25:19;;;;;;;;;;;10.10;99.90;;;;;;6245172;22;20009;-80
2021/12/13 00:27:58;;;;;;;;;;;10.10;99.90;;;;;;6245514;22;19990;-80
2021/12/13 00:30:26;;;;;;;;;;;10.10;99.90;;;;;;6244292;22;19976;-81
2021/12/13 00:33:14;;;;;;;;;;;10.10;99.90;;;;;;6243794;22;19923;-81
2021/12/13 00:35:46;;;;;;;;;;;10.10;99.90;;;;;;6245609;22;19920;-81
2021/12/13 00:38:13;;;;;;;;;;;10.10;99.90;;;;;;6244521;22;20002;-79
2021/12/13 00:40:41;;;;;;;;;;;10.10;99.90;;;;;;6245638;22;20248;-80
2021/12/13 00:43:09;;;;;;;;;;;10.10;99.90;;;;;;6245022;22;19965;-80
2021/12/13 00:45:38;;;;;;;;;;;10.10;99.90;;;;;;6244270;22;19919;-81
2021/12/13 00:48:04;;;;;;;;;;;10.10;99.90;;;;;;6243627;22;19919;-83
2021/12/13 00:50:46;;;;;;;;;;;10.10;99.90;;;;;;6243915;22;20379;-81
2021/12/13 00:53:16;;;;;;;;;;;10.10;99.90;;;;;;6244789;22;19919;-81
2021/12/13 00:55:42;;;;;;;;;;;10.10;99.90;;;;;;6244734;22;19919;-81
2021/12/13 00:58:09;;;;;;;;;;;10.10;99.90;;;;;;6243097;22;19927;-83
2021/12/13 01:00:37;;;;;;;;;;;10.10;99.90;;;;;;6244270;22;19921;-80
2021/12/13 01:03:05;;;;;;;;;;;10.10;99.90;;;;;;6241936;22;19919;-83
2021/12/13 01:05:37;;;;;;;;;;;10.10;99.90;;;;;;6243669;22;19926;-82
2021/12/13 01:08:12;;;;;;;;;;;10.10;99.90;;;;;;6244841;22;19923;-80
2021/12/13 01:10:38;;;;;;;;;;;10.10;99.90;;;;;;6244631;22;19951;-81
2021/12/13 01:13:04;;;;;;;;;;;10.10;99.90;;;;;;6244088;22;19926;-81
2021/12/13 01:15:42;;;;;;;;;;;10.10;99.90;;;;;;6244448;22;19920;-81
2021/12/13 01:18:22;;;;;;;;;;;10.10;99.90;;;;;;6242729;22;19930;-81
2021/12/13 01:21:04;;;;;;;;;;;10.10;99.90;;;;;;6244796;22;19993;-80
2021/12/13 01:23:45;;;;;;;;;;;10.10;99.90;;;;;;6244412;22;19941;-82
2021/12/13 01:26:35;;;;;;;;;;;10.10;99.90;;;;;;6244196;22;20274;-82
2021/12/13 01:29:04;;;;;;;;;;;10.10;99.90;;;;;;6244914;22;20327;-80
2021/12/13 01:31:31;;;;;;;;;;;10.10;99.90;;;;;;6243210;22;19919;-81
2021/12/13 01:33:58;;;;;;;;;;;10.10;99.90;;;;;;6243106;22;20060;-81
2021/12/13 01:36:28;;;;;;;;;;;10.10;99.90;;;;;;6244202;22;19994;-82
2021/12/13 01:38:56;;;;;;;;;;;10.10;99.90;;;;;;6244051;22;19981;-81
2021/12/13 01:41:23;;;;;;;;;;;10.10;99.90;;;;;;6243486;22;19950;-82
2021/12/13 01:43:57;;;;;;;;;;;10.10;99.90;;;;;;6243987;22;19926;-82
2021/12/13 01:46:23;;;;;;;;;;;10.10;99.90;;;;;;6241553;22;19923;-80
2021/12/13 14:10:27;;;;;;;;;;;10.00;99.90;;;;;;6285339;22;19945;-81
2021/12/13 14:12:55;;;;;;;;;;;10.10;99.90;;;;;;6235166;22;19923;-81
2021/12/13 14:15:20;;;;;;;;;;;10.10;99.90;;;;;;6237303;22;19945;-81
2021/12/13 14:18:06;;;;;;;;;;;10.10;99.90;;;;;;6241469;22;20323;-80
2021/12/13 14:20:34;;;;;;;;;;;10.00;99.90;;;;;;6242452;22;19981;-81
2021/12/13 14:23:02;;;;;;;;;;;10.10;99.90;;;;;;6242622;22;19919;-81
2021/12/13 14:25:36;;;;;;;;;;;10.00;99.90;;;;;;6243235;22;19927;-82
2021/12/13 14:28:03;;;;;;;;;;;10.00;99.90;;;;;;6241116;22;20045;-80
2021/12/13 14:30:49;;;;;;;;;;;10.00;99.90;;;;;;6242425;22;19918;-81
2021/12/13 14:33:20;;;;;;;;;;;10.00;99.90;;;;;;6240309;22;19929;-81
2021/12/13 14:35:52;;;;;;;;;;;10.00;99.90;;;;;;6242556;22;19919;-81
2021/12/13 14:38:17;;;;;;;;;;;10.00;99.90;;;;;;6242727;22;19938;-81
2021/12/13 14:40:53;;;;;;;;;;;10.00;99.90;;;;;;6241668;22;19965;-80
2021/12/13 14:43:20;;;;;;;;;;;10.00;99.90;;;;;;6241098;22;19923;-80
2021/12/13 14:45:46;;;;;;;;;;;9.90;99.90;;;;;;6242634;22;19919;-80
2021/12/13 14:48:15;;;;;;;;;;;9.90;99.90;;;;;;6239497;22;20323;-80
2021/12/13 14:50:46;;;;;;;;;;;9.90;99.90;;;;;;6241154;22;19950;-80
2021/12/13 14:53:19;;;;;;;;;;;9.90;99.90;;;;;;6242037;22;19930;-81
2021/12/13 14:55:47;;;;;;;;;;;9.90;99.90;;;;;;6241256;22;20176;-81
2021/12/13 14:58:16;;;;;;;;;;;9.90;99.90;;;;;;6243124;22;19942;-80
2021/12/13 15:00:49;;;;;;;;;;;9.90;99.90;;;;;;6242062;22;19958;-80
2021/12/13 15:03:17;;;;;;;;;;;9.80;99.90;;;;;;6232673;22;19929;-80
2021/12/13 15:05:49;;;;;;;;;;;9.90;99.90;;;;;;6240067;22;19922;-81
2021/12/13 15:08:15;;;;;;;;;;;9.80;99.90;;;;;;6241257;22;19955;-81
2021/12/13 15:10:45;;;;;;;;;;;9.80;99.90;;;;;;6241361;22;19930;-81
2021/12/13 15:13:12;;;;;;;;;;;9.80;99.90;;;;;;6240260;22;20575;-82
2021/12/13 15:15:50;;;;;;;;;;;9.80;99.90;;;;;;6241676;22;20347;-81
2021/12/13 15:18:16;;;;;;;;;;;9.80;99.90;;;;;;6239535;22;19919;-80
2021/12/13 15:20:44;;;;;;;;;;;9.80;99.90;;;;;;6241784;22;19938;-82
2021/12/13 15:23:16;;;;;;;;;;;9.80;99.90;;;;;;6241795;22;19919;-82
2021/12/13 15:25:44;;;;;;;;;;;9.70;99.90;;;;;;6234793;22;19946;-80
2021/12/13 15:28:18;;;;;;;;;;;9.70;99.90;;;;;;6236256;22;19924;-81
2021/12/13 15:30:44;;;;;;;;;;;9.70;99.90;;;;;;6240337;22;19919;-81
2021/12/13 15:33:10;;;;;;;;;;;9.70;99.90;;;;;;6240044;22;19926;-81
2021/12/13 15:35:37;;;;;;;;;;;9.70;99.90;;;;;;6240535;22;20380;-82
2021/12/13 15:38:05;;;;;;;;;;;9.70;99.90;;;;;;6240836;22;19923;-81
2021/12/13 15:40:35;;;;;;;;;;;9.60;99.90;;;;;;6242537;22;19931;-81
2021/12/13 15:43:10;;;;;;;;;;;9.60;99.90;;;;;;6243256;22;20267;-81
2021/12/13 15:45:37;;;;;;;;;;;9.60;99.90;;;;;;6241910;22;19926;-81
2021/12/13 15:50:56;;;;;;;;;;;9.60;99.90;;;;;;6239944;22;19923;-80
2021/12/13 15:53:22;;;;;;;;;;;9.60;99.90;;;;;;6240555;22;20447;-81
2021/12/13 15:55:59;;;;;;;;;;;9.60;99.90;;;;;;6239475;22;19954;-82
2021/12/13 15:58:27;;;;;;;;;;;9.60;99.90;;;;;;6238657;22;19950;-80
2021/12/13 16:01:22;;;;;;;;;;;9.60;99.90;;;;;;6238983;22;19923;-80
2021/12/13 16:03:49;;;;;;;;;;;9.60;99.90;;;;;;6207330;22;19923;-80
2021/12/13 16:06:16;;;;;;;;;;;9.60;99.90;;;;;;6242534;22;20315;-81
2021/12/13 16:08:44;;;;;;;;;;;9.60;99.90;;;;;;6241752;22;19919;-80
2021/12/13 16:11:36;;;;;;;;;;;9.60;99.90;;;;;;6241579;22;19921;-80
2021/12/13 16:14:18;;;;;;;;;;;9.60;99.90;;;;;;6234137;22;19974;-80
2021/12/13 16:16:56;;;;;;;;;;;9.60;99.90;;;;;;6243119;22;19922;-80
2021/12/13 16:19:39;;;;;;;;;;;9.60;99.90;;;;;;6241193;22;19980;-80
2021/12/13 16:22:07;;;;;;;;;;;9.60;99.90;;;;;;6242672;22;19990;-80
2021/12/13 16:24:33;;;;;;;;;;;9.60;99.90;;;;;;6240830;22;19919;-80
2021/12/13 16:26:58;;;;;;;;;;;9.50;99.90;;;;;;6242036;22;19972;-81
2021/12/13 16:29:24;;;;;;;;;;;9.50;99.90;;;;;;6242864;22;19939;-80
2021/12/13 16:31:51;;;;;;;;;;;9.50;99.90;;;;;;6242924;22;19990;-81
2021/12/13 16:34:21;;;;;;;;;;;9.50;99.90;;;;;;6239565;22;20017;-81
2021/12/13 16:36:58;;;;;;;;;;;9.50;99.90;;;;;;6243438;22;19950;-81
2021/12/13 16:39:25;;;;;;;;;;;9.50;99.90;;;;;;6241550;22;19919;-81
2021/12/13 16:41:52;;;;;;;;;;;9.50;99.90;;;;;;6240493;22;19927;-81
2021/12/13 16:44:20;;;;;;;;;;;9.50;99.90;;;;;;6240484;22;19923;-80
2021/12/13 16:46:47;;;;;;;;;;;9.50;99.90;;;;;;6242047;22;19920;-81
2021/12/13 16:49:24;;;;;;;;;;;9.50;99.90;;;;;;6240385;22;19950;-81
2021/12/13 16:51:55;;;;;;;;;;;9.40;99.90;;;;;;6241296;22;19919;-80
2021/12/13 16:54:32;;;;;;;;;;;9.40;99.90;;;;;;6239920;22;19927;-80
2021/12/13 16:57:01;;;;;;;;;;;9.40;99.90;;;;;;6242393;22;20335;-80
2021/12/13 16:59:27;;;;;;;;;;;9.40;99.90;;;;;;6241945;22;20322;-79
2021/12/13 17:01:54;;;;;;;;;;;10.20;99.90;;;;;;6239155;22;19943;-77
2021/12/13 17:04:38;;;;;;;;;;;9.40;99.90;;;;;;6232833;22;19923;-76
2021/12/13 17:07:07;;;;;;;;;;;9.30;99.90;;;;;;6232989;22;19919;-76
2021/12/13 17:09:50;;;;;;;;;;;9.30;99.90;;;;;;6231860;22;20022;-75
2021/12/13 17:12:17;;;;;;;;;;;9.30;99.90;;;;;;6240875;22;20324;-76
2021/12/13 17:14:48;;;;;;;;;;;9.30;99.90;;;;;;6238932;22;19919;-75
2021/12/13 17:17:14;;;;;;;;;;;9.30;99.90;;;;;;6237255;22;20022;-77
2021/12/13 17:19:48;;;;;;;;;;;9.20;99.90;;;;;;6236747;22;20455;-75
2021/12/13 17:22:15;;;;;;;;;;;9.20;99.90;;;;;;6241988;22;19920;-75
2021/12/13 17:24:44;;;;;;;;;;;9.20;99.90;;;;;;6238049;22;19927;-75
2021/12/13 17:27:10;;;;;;;;;;;9.20;99.90;;;;;;6264241;22;19919;-75
2021/12/13 17:29:44;;;;;;;;;;;9.20;99.90;;;;;;6236949;22;19923;-75
2021/12/13 17:32:15;;;;;;;;;;;9.30;99.90;;;;;;6236874;22;19930;-75
2021/12/13 17:34:43;;;;;;;;;;;9.10;99.90;;;;;;6263231;22;19934;-75
2021/12/13 17:37:11;;;;;;;;;;;9.10;99.90;;;;;;6262696;22;19919;-76
2021/12/13 17:39:38;;;;;;;;;;;9.10;99.90;;;;;;6237564;22;19972;-75
2021/12/13 17:42:06;;;;;;;;;;;9.10;99.90;;;;;;6237310;22;19923;-76
2021/12/13 17:44:32;;;;;;;;;;;9.10;99.90;;;;;;6236416;22;20006;-76
2021/12/13 17:46:57;;;;;;;;;;;9.20;99.90;;;;;;6236939;22;20736;-76
2021/12/13 17:49:49;;;;;;;;;;;9.40;99.90;;;;;;6234354;22;19923;-78
2021/12/13 17:52:15;;;;;;;;;;;9.10;99.90;;;;;;6231386;22;19924;-78
2021/12/13 17:55:00;;;;;;;;;;;9.10;99.90;;;;;;6237233;22;20299;-77
2021/12/13 17:57:30;;;;;;;;;;;9.00;99.90;;;;;;6236362;22;20608;-78
2021/12/13 17:59:55;;;;;;;;;;;9.00;99.90;;;;;;6263087;22;20307;-76
2021/12/13 18:02:24;;;;;;;;;;;9.00;99.90;;;;;;6237651;22;19934;-78
2021/12/13 18:04:56;;;;;;;;;;;9.00;99.90;;;;;;6229828;22;19953;-76
2021/12/13 18:07:35;;;;;;;;;;;9.40;99.90;;;;;;6265160;22;20323;-75
2021/12/13 18:10:02;;;;;;;;;;;9.00;99.90;;;;;;6237093;22;19942;-77
2021/12/13 18:12:32;;;;;;;;;;;9.00;99.90;;;;;;6236275;22;19962;-76
2021/12/13 18:15:03;;;;;;;;;;;9.00;99.90;;;;;;6239001;22;20589;-75
2021/12/13 18:17:29;;;;;;;;;;;9.00;99.90;;;;;;6238713;22;19955;-76
2021/12/13 18:20:01;;;;;;;;;;;9.00;99.90;;;;;;6238058;22;20291;-78
2021/12/13 18:22:47;;;;;;;;;;;9.00;99.90;;;;;;6240395;22;19923;-79
2021/12/13 18:25:22;;;;;;;;;;;9.00;99.90;;;;;;6237643;22;20733;-76
2021/12/13 18:27:53;;;;;;;;;;;8.90;99.90;;;;;;6234605;22;19977;-77
2021/12/13 18:30:21;;;;;;;;;;;9.00;99.90;;;;;;6236495;22;19942;-77
2021/12/13 18:32:47;;;;;;;;;;;8.90;99.90;;;;;;6237441;22;20214;-76
2021/12/13 18:35:21;;;;;;;;;;;8.90;99.90;;;;;;6233553;22;19922;-76
2021/12/13 18:37:47;;;;;;;;;;;8.90;99.90;;;;;;6261141;22;19946;-75
2021/12/13 18:40:25;;;;;;;;;;;7.90;99.90;;;;;;6235543;22;19998;-76
2021/12/13 18:42:59;;;;;;;;;;;8.90;99.90;;;;;;6234421;22;20324;-76
2021/12/13 18:45:26;;;;;;;;;;;9.80;99.90;;;;;;6235859;22;19938;-76
2021/12/13 18:47:55;;;;;;;;;;;8.90;99.90;;;;;;6235973;22;20006;-76
2021/12/13 18:50:21;;;;;;;;;;;9.80;99.90;;;;;;6237625;22;19927;-76
2021/12/13 18:52:49;;;;;;;;;;;9.60;99.90;;;;;;6234515;22;19930;-76
2021/12/13 18:55:17;;;;;;;;;;;8.90;99.90;;;;;;6236350;22;19935;-76
2021/12/13 18:57:45;;;;;;;;;;;9.60;99.90;;;;;;6238629;22;19926;-76
2021/12/13 19:00:14;;;;;;;;;;;8.90;99.90;;;;;;6237627;22;19931;-76
2021/12/13 19:02:44;;;;;;;;;;;8.90;99.90;;;;;;6238282;22;19919;-76
2021/12/13 19:05:18;;;;;;;;;;;8.90;99.90;;;;;;6238223;22;20026;-76
2021/12/13 19:07:55;;;;;;;;;;;8.90;99.90;;;;;;6266931;22;19919;-76
2021/12/13 19:10:23;;;;;;;;;;;9.00;99.90;;;;;;6267228;22;19995;-77
2021/12/13 19:12:52;;;;;;;;;;;9.40;99.90;;;;;;6239677;22;20357;-77
2021/12/13 19:15:27;;;;;;;;;;;8.90;99.90;;;;;;6239161;22;20276;-76
2021/12/13 19:17:58;;;;;;;;;;;8.90;99.90;;;;;;6238028;22;20330;-76
2021/12/13 19:20:37;;;;;;;;;;;8.90;99.90;;;;;;6241192;22;19922;-76
2021/12/13 19:23:07;;;;;;;;;;;9.40;99.90;;;;;;6240048;22;19981;-77
2021/12/13 19:25:38;;;;;;;;;;;8.80;99.90;;;;;;6235004;22;20239;-77
2021/12/13 19:28:05;;;;;;;;;;;8.80;99.90;;;;;;6241122;22;19931;-76
2021/12/13 19:30:47;;;;;;;;;;;8.80;99.90;;;;;;6239832;22;20226;-76
2021/12/13 19:33:16;;;;;;;;;;;8.80;99.90;;;;;;6235413;22;19923;-77
2021/12/13 19:35:58;;;;;;;;;;;8.80;99.90;;;;;;6236696;22;19925;-77
2021/12/13 19:38:26;;;;;;;;;;;8.80;99.90;;;;;;6271304;22;19923;-76
2021/12/13 19:40:56;;;;;;;;;;;8.80;99.90;;;;;;6239314;22;19965;-77
2021/12/13 19:43:34;;;;;;;;;;;9.40;99.90;;;;;;6241406;22;20240;-77
2021/12/13 19:46:01;;;;;;;;;;;8.80;99.90;;;;;;6240618;22;19920;-77
2021/12/13 19:48:31;;;;;;;;;;;8.70;99.90;;;;;;6243457;22;19986;-77
2021/12/13 19:51:23;;;;;;;;;;;8.70;99.90;;;;;;6242899;22;19926;-77
2021/12/13 19:53:52;;;;;;;;;;;8.70;99.90;;;;;;6233331;22;19923;-77
2021/12/13 19:56:23;;;;;;;;;;;8.70;99.90;;;;;;6239252;22;19923;-77
2021/12/13 19:58:53;;;;;;;;;;;8.70;99.90;;;;;;6242336;22;19930;-76
2021/12/13 20:01:31;;;;;;;;;;;8.70;99.90;;;;;;6241045;22;19923;-77
2021/12/13 20:04:16;;;;;;;;;;;8.70;99.90;;;;;;6241495;22;19930;-75
2021/12/13 20:06:44;;;;;;;;;;;8.70;99.90;;;;;;6241051;22;20379;-77
2021/12/13 20:09:16;;;;;;;;;;;8.70;99.90;;;;;;6244434;22;19926;-76
2021/12/13 20:11:45;;;;;;;;;;;8.70;99.90;;;;;;6268509;22;20502;-77
2021/12/13 20:14:14;;;;;;;;;;;8.70;99.90;;;;;;6241281;22;19981;-76
2021/12/13 20:16:42;;;;;;;;;;;8.70;99.90;;;;;;6241901;22;19951;-75
2021/12/13 20:19:11;;;;;;;;;;;8.70;99.90;;;;;;6242005;22;19919;-76
2021/12/13 20:21:40;;;;;;;;;;;9.10;99.90;;;;;;6243706;22;19968;-76
2021/12/13 20:24:08;;;;;;;;;;;8.70;99.90;;;;;;6242789;22;20323;-76
2021/12/13 20:26:42;;;;;;;;;;;8.70;99.90;;;;;;6268399;22;19954;-79
2021/12/13 20:29:14;;;;;;;;;;;8.60;99.90;;;;;;6269711;22;19923;-76
2021/12/13 20:31:43;;;;;;;;;;;8.80;99.90;;;;;;6240263;22;19926;-76
2021/12/13 20:34:14;;;;;;;;;;;9.80;99.90;;;;;;6268552;22;20018;-76
2021/12/13 20:36:49;;;;;;;;;;;8.60;99.90;;;;;;6240941;22;19927;-76
2021/12/13 20:39:25;;;;;;;;;;;8.60;99.90;;;;;;6242448;22;19930;-78
2021/12/13 20:41:53;;;;;;;;;;;8.70;99.90;;;;;;6242462;22;20254;-76
2021/12/13 20:44:27;;;;;;;;;;;8.60;99.90;;;;;;6242173;22;19927;-75
2021/12/13 20:47:02;;;;;;;;;;;8.60;99.90;;;;;;6238886;22;20417;-76
2021/12/13 20:49:34;;;;;;;;;;;8.70;99.90;;;;;;6232047;22;19942;-76
2021/12/13 20:52:02;;;;;;;;;;;8.50;99.90;;;;;;6242900;22;20367;-76
2021/12/13 20:58:04;;;;;;;;;;;8.40;99.90;;;;;;6270091;22;19972;-75
2021/12/13 21:00:32;;;;;;;;;;;8.60;99.90;;;;;;6241635;22;19973;-75
2021/12/13 21:03:00;;;;;;;;;;;8.60;99.90;;;;;;6243878;22;19980;-76
2021/12/13 21:05:32;;;;;;;;;;;8.90;99.90;;;;;;6269611;22;20353;-76
2021/12/13 21:08:00;;;;;;;;;;;8.60;99.90;;;;;;6270196;22;19919;-75
2021/12/13 21:10:25;;;;;;;;;;;8.60;99.90;;;;;;6269057;22;19927;-75
2021/12/13 21:12:54;;;;;;;;;;;9.20;99.90;;;;;;6243258;22;19973;-76
2021/12/13 21:15:22;;;;;;;;;;;8.60;99.90;;;;;;6239122;22;19923;-75
2021/12/13 21:17:50;;;;;;;;;;;8.60;99.90;;;;;;6239051;22;19923;-76
2021/12/13 21:20:22;;;;;;;;;;;8.60;99.90;;;;;;6240596;22;19919;-76
2021/12/13 21:22:50;;;;;;;;;;;8.60;99.90;;;;;;6241494;22;19969;-75
2021/12/13 21:25:37;;;;;;;;;;;8.70;99.90;;;;;;6242912;22;19981;-75
2021/12/13 21:28:06;;;;;;;;;;;8.60;99.90;;;;;;6243703;22;20002;-76
2021/12/13 21:30:39;;;;;;;;;;;8.60;99.90;;;;;;6239199;22;19919;-76
2021/12/13 21:33:04;;;;;;;;;;;9.20;99.90;;;;;;6243056;22;20308;-75
2021/12/13 21:35:44;;;;;;;;;;;8.90;99.90;;;;;;6241513;22;19979;-76
2021/12/13 21:41:08;;;;;;;;;;;8.60;99.90;;;;;;6241136;22;19927;-76
2021/12/13 21:43:35;;;;;;;;;;;8.60;99.90;;;;;;6239982;22;20348;-76
2021/12/13 21:46:05;;;;;;;;;;;8.60;99.90;;;;;;6241677;22;19930;-75
2021/12/13 21:48:33;;;;;;;;;;;8.50;99.90;;;;;;6241909;22;19923;-76
2021/12/13 21:51:24;;;;;;;;;;;8.60;99.90;;;;;;6241445;22;19959;-78
2021/12/13 21:53:49;;;;;;;;;;;8.80;99.90;;;;;;6242454;22;20259;-75
2021/12/13 21:56:15;;;;;;;;;;;9.00;99.90;;;;;;6242222;22;19923;-75
2021/12/13 21:58:41;;;;;;;;;;;8.50;99.90;;;;;;6239925;22;19969;-76
2021/12/13 22:01:22;;;;;;;;;;;8.50;99.90;;;;;;6238879;22;19954;-75
2021/12/13 22:03:50;;;;;;;;;;;8.60;99.90;;;;;;6236068;22;19972;-76
2021/12/13 22:06:15;;;;;;;;;;;8.50;99.90;;;;;;6239398;22;20589;-75
2021/12/13 22:08:47;;;;;;;;;;;8.20;99.90;;;;;;6242381;22;20093;-76
2021/12/13 22:11:18;;;;;;;;;;;8.50;99.90;;;;;;6240199;22;19919;-76
2021/12/13 22:13:52;;;;;;;;;;;8.50;99.90;;;;;;6239224;22;20350;-76
2021/12/13 22:16:20;;;;;;;;;;;8.60;99.90;;;;;;6240764;22;20287;-76
2021/12/13 22:18:49;;;;;;;;;;;8.50;99.90;;;;;;6235843;22;19923;-76
2021/12/13 22:21:17;;;;;;;;;;;8.70;99.90;;;;;;6241392;22;19919;-76
2021/12/13 22:23:46;;;;;;;;;;;8.60;99.90;;;;;;6242523;22;19924;-76
2021/12/13 22:26:12;;;;;;;;;;;8.50;99.90;;;;;;6240177;22;19972;-76
2021/12/13 22:28:40;;;;;;;;;;;8.50;99.90;;;;;;6240698;22;19919;-76
2021/12/13 22:31:21;;;;;;;;;;;9.00;99.90;;;;;;6240508;22;20018;-76
2021/12/13 22:33:48;;;;;;;;;;;7.90;99.90;;;;;;6238749;22;20000;-76
2021/12/13 22:36:14;;;;;;;;;;;9.20;99.90;;;;;;6239424;22;19998;-75
2021/12/13 22:38:42;;;;;;;;;;;8.50;99.90;;;;;;6238819;22;19929;-77
2021/12/13 22:41:13;;;;;;;;;;;8.50;99.90;;;;;;6241070;22;19919;-76
2021/12/13 22:43:51;;;;;;;;;;;8.50;99.90;;;;;;6241448;22;19926;-76
2021/12/13 22:46:19;;;;;;;;;;;8.50;99.90;;;;;;6238249;22;19998;-75
2021/12/13 22:48:46;;;;;;;;;;;9.40;99.90;;;;;;6238854;22;19925;-76
2021/12/13 22:51:13;;;;;;;;;;;8.50;99.90;;;;;;6240308;22;20278;-76
2021/12/13 22:53:40;;;;;;;;;;;8.50;99.90;;;;;;6238661;22;20014;-76
2021/12/13 22:56:07;;;;;;;;;;;9.10;99.90;;;;;;6241713;22;19926;-76
2021/12/13 22:58:35;;;;;;;;;;;8.50;99.90;;;;;;6239733;22;19923;-77
2021/12/13 23:01:04;;;;;;;;;;;8.50;99.90;;;;;;6240350;22;19927;-77
2021/12/13 23:03:31;;;;;;;;;;;8.50;99.90;;;;;;6239123;22;19926;-77
2021/12/13 23:06:01;;;;;;;;;;;8.50;99.90;;;;;;6239641;22;19926;-76
2021/12/13 23:08:30;;;;;;;;;;;9.20;99.90;;;;;;6241957;22;19920;-81
2021/12/13 23:13:53;;;;;;;;;;;8.10;99.90;;;;;;6265480;22;19927;-80
2021/12/13 23:16:24;;;;;;;;;;;8.50;99.90;;;;;;6238476;22;19923;-80
2021/12/13 23:18:52;;;;;;;;;;;8.10;99.90;;;;;;6239834;22;19930;-81
2021/12/13 23:21:19;;;;;;;;;;;9.00;99.90;;;;;;6236058;22;20576;-81
2021/12/13 23:23:45;;;;;;;;;;;8.50;99.90;;;;;;6242052;22;19919;-81
2021/12/13 23:26:10;;;;;;;;;;;9.90;99.90;;;;;;6241408;22;19927;-80
2021/12/13 23:28:39;;;;;;;;;;;8.50;99.90;;;;;;6264822;22;19919;-81
2021/12/13 23:31:11;;;;;;;;;;;8.80;99.90;;;;;;6267398;22;20182;-79
2021/12/13 23:33:38;;;;;;;;;;;10.00;99.90;;;;;;6238172;22;19947;-81
2021/12/13 23:36:20;;;;;;;;;;;9.90;99.90;;;;;;6239914;22;19954;-79
2021/12/13 23:47:18;;;;;;;;;;;8.40;99.90;;;;;;6239619;22;19919;-80
2021/12/13 23:49:45;;;;;;;;;;;8.50;99.90;;;;;;6230046;22;19919;-79
2021/12/13 23:52:13;;;;;;;;;;;8.40;99.90;;;;;;6240226;22;19954;-79
2021/12/13 23:54:42;;;;;;;;;;;8.50;99.90;;;;;;6241573;22;19919;-80
2021/12/13 23:57:12;;;;;;;;;;;8.50;99.90;;;;;;6237956;22;19923;-80
2021/12/13 23:59:40;;;;;;;;;;;8.50;99.90;;;;;;6237588;22;20262;-80
